createdAt,value
2023-03-27T00:00:22.654Z,98410.50
2023-03-27T00:02:54.969Z,98416.16
2023-03-27T00:05:26.684Z,98415.56
2023-03-27T00:07:57.934Z,98417.69
2023-03-27T00:10:30.504Z,98414.25
2023-03-27T00:13:05.681Z,98419.12
2023-03-27T00:15:38.361Z,98419.81
2023-03-27T00:18:10.726Z,98421.34
2023-03-27T00:20:43.920Z,98427.03
2023-03-27T00:23:15.800Z,98423.59
2023-03-27T00:25:49.092Z,98428.09
2023-03-27T00:28:21.455Z,98427.62
2023-03-27T00:30:53.126Z,98431.41
2023-03-27T00:33:25.269Z,98433.66
2023-03-27T00:35:56.735Z,98433.28
2023-03-27T00:38:27.150Z,98427.84
2023-03-27T00:40:59.081Z,98439.44
2023-03-27T00:43:34.561Z,98440.84
2023-03-27T00:46:29.007Z,98440.00
2023-03-27T00:49:04.278Z,98442.97
2023-03-27T00:51:36.546Z,98441.19
2023-03-27T00:54:10.635Z,98446.91
2023-03-27T00:56:42.796Z,98442.38
2023-03-27T00:59:19.180Z,98432.69
2023-03-27T01:01:52.001Z,98439.06
2023-03-27T01:04:24.094Z,98455.06
2023-03-27T01:06:57.453Z,98450.91
2023-03-27T01:09:30.161Z,98454.81
2023-03-27T01:12:16.222Z,98449.81
2023-03-27T01:15:08.511Z,98454.31
2023-03-27T01:18:05.591Z,98452.56
2023-03-27T01:21:15.098Z,98452.91
2023-03-27T01:24:24.054Z,98440.84
2023-03-27T01:27:23.208Z,98445.19
2023-03-27T01:30:19.931Z,98441.66
2023-03-27T01:33:27.711Z,98455.84
2023-03-27T01:36:03.939Z,98451.09
2023-03-27T01:39:14.539Z,98449.31
2023-03-27T01:42:20.977Z,98451.19
2023-03-27T01:45:18.963Z,98448.59
2023-03-27T01:48:14.500Z,98454.59
2023-03-27T01:51:05.786Z,98443.59
2023-03-27T01:53:44.577Z,98456.50
2023-03-27T01:56:27.170Z,98458.69
2023-03-27T01:59:06.167Z,98455.97
2023-03-27T02:01:43.014Z,98459.72
2023-03-27T02:04:21.985Z,98461.81
2023-03-27T02:06:59.230Z,98464.72
2023-03-27T02:09:39.281Z,98457.06
2023-03-27T02:12:18.906Z,98463.53
2023-03-27T02:15:23.588Z,98466.22
2023-03-27T02:17:58.107Z,98466.31
2023-03-27T02:20:29.730Z,98477.44
2023-03-27T02:23:02.196Z,98467.69
2023-03-27T02:25:33.899Z,98469.97
2023-03-27T02:28:06.036Z,98462.50
2023-03-27T02:31:06.023Z,98466.63
2023-03-27T02:34:32.388Z,98469.22
2023-03-27T02:37:33.034Z,98449.41
2023-03-27T02:40:32.639Z,98465.59
2023-03-27T02:43:18.812Z,98474.28
2023-03-27T02:46:03.970Z,98471.31
2023-03-27T02:48:44.920Z,98468.41
2023-03-27T02:51:39.041Z,98473.44
2023-03-27T02:54:17.827Z,98482.34
2023-03-27T02:56:56.268Z,98480.69
2023-03-27T02:59:36.285Z,98483.87
2023-03-27T03:02:14.477Z,98486.28
2023-03-27T03:04:58.112Z,98482.63
2023-03-27T03:07:30.329Z,98490.63
2023-03-27T03:10:02.969Z,98484.59
2023-03-27T03:12:35.571Z,98494.13
2023-03-27T03:15:09.333Z,98494.22
2023-03-27T03:17:41.821Z,98500.53
2023-03-27T03:20:17.893Z,98500.03
2023-03-27T03:22:51.547Z,98511.94
2023-03-27T03:25:23.011Z,98511.75
2023-03-27T03:27:59.334Z,98511.62
2023-03-27T03:30:32.042Z,98512.81
2023-03-27T03:33:05.084Z,98510.25
2023-03-27T03:35:38.137Z,98517.63
2023-03-27T03:38:13.012Z,98514.00
2023-03-27T03:40:47.575Z,98519.31
2023-03-27T03:43:20.674Z,98515.47
2023-03-27T03:45:53.272Z,98517.25
2023-03-27T03:48:25.798Z,98519.12
2023-03-27T03:50:58.712Z,98516.63
2023-03-27T03:53:30.531Z,98524.81
2023-03-27T03:56:02.876Z,98519.03
2023-03-27T03:58:35.275Z,98518.66
2023-03-27T04:01:10.289Z,98512.03
2023-03-27T04:03:42.827Z,98515.97
2023-03-27T04:06:14.574Z,98517.75
2023-03-27T04:08:47.403Z,98527.56
2023-03-27T04:11:23.734Z,98529.41
2023-03-27T04:13:56.104Z,98537.09
2023-03-27T04:16:27.086Z,98533.25
2023-03-27T04:19:02.305Z,98532.97
2023-03-27T04:21:33.415Z,98526.72
2023-03-27T04:24:06.303Z,98528.94
2023-03-27T04:26:42.929Z,98530.03
2023-03-27T04:29:18.593Z,98536.06
2023-03-27T04:31:52.157Z,98526.88
2023-03-27T04:34:28.128Z,98532.88
2023-03-27T04:37:06.827Z,98540.19
2023-03-27T04:39:43.950Z,98535.63
2023-03-27T04:42:16.547Z,98540.53
2023-03-27T04:44:48.790Z,98542.91
2023-03-27T04:47:21.759Z,98543.69
2023-03-27T04:49:52.936Z,98549.97
2023-03-27T04:52:26.840Z,98547.06
2023-03-27T04:55:00.131Z,98549.53
2023-03-27T04:57:34.795Z,98544.50
2023-03-27T05:00:16.787Z,98554.56
2023-03-27T05:02:54.519Z,98551.22
2023-03-27T05:05:27.084Z,98547.81
2023-03-27T05:07:59.385Z,98550.94
2023-03-27T05:10:31.192Z,98552.81
2023-03-27T05:13:03.453Z,98550.06
2023-03-27T05:15:37.084Z,98554.53
2023-03-27T05:18:10.249Z,98543.31
2023-03-27T05:20:41.609Z,98557.94
2023-03-27T05:23:14.477Z,98562.00
2023-03-27T05:26:00.701Z,98567.28
2023-03-27T05:28:37.885Z,98562.94
2023-03-27T05:31:11.421Z,98563.97
2023-03-27T05:33:43.332Z,98561.41
2023-03-27T05:36:16.253Z,98556.50
2023-03-27T05:38:47.883Z,98549.31
2023-03-27T05:41:19.364Z,98548.84
2023-03-27T05:43:52.311Z,98550.12
2023-03-27T05:46:25.245Z,98554.63
2023-03-27T05:48:57.344Z,98559.25
2023-03-27T05:51:29.309Z,98561.41
2023-03-27T05:54:01.246Z,98560.84
2023-03-27T05:56:35.497Z,98564.62
2023-03-27T05:59:06.982Z,98566.16
2023-03-27T06:01:36.829Z,98567.69
2023-03-27T06:04:10.880Z,98575.13
2023-03-27T06:06:43.864Z,98570.31
2023-03-27T06:09:15.109Z,98584.03
2023-03-27T06:11:45.856Z,98579.06
2023-03-27T06:14:17.921Z,98588.16
2023-03-27T06:16:51.420Z,98596.03
2023-03-27T06:19:28.264Z,98596.56
2023-03-27T06:21:59.467Z,98591.59
2023-03-27T06:24:32.251Z,98590.53
2023-03-27T06:27:05.026Z,98597.75
2023-03-27T06:29:38.646Z,98599.16
2023-03-27T06:32:10.132Z,98596.47
2023-03-27T06:34:42.616Z,98599.66
2023-03-27T06:37:15.550Z,98602.00
2023-03-27T06:39:47.676Z,98600.81
2023-03-27T06:42:18.447Z,98606.75
2023-03-27T06:44:53.993Z,98608.16
2023-03-27T06:47:31.076Z,98604.81
2023-03-27T06:50:06.000Z,98608.63
2023-03-27T06:52:38.455Z,98607.88
2023-03-27T06:55:14.642Z,98611.66
2023-03-27T06:57:53.929Z,98590.59
2023-03-27T07:00:30.179Z,98607.16
2023-03-27T07:03:07.545Z,98608.25
2023-03-27T07:05:44.214Z,98608.84
2023-03-27T07:08:24.082Z,98609.88
2023-03-27T07:11:10.634Z,98611.75
2023-03-27T07:13:44.466Z,98609.88
2023-03-27T07:16:17.260Z,98617.81
2023-03-27T07:18:49.026Z,98618.25
2023-03-27T07:21:20.452Z,98614.66
2023-03-27T07:23:51.869Z,98612.41
2023-03-27T07:26:24.029Z,98609.53
2023-03-27T07:28:55.297Z,98618.34
2023-03-27T07:31:40.314Z,98616.81
2023-03-27T07:34:16.662Z,98617.31
2023-03-27T07:36:48.745Z,98617.44
2023-03-27T07:39:20.068Z,98610.97
2023-03-27T07:41:53.163Z,98611.44
2023-03-27T07:44:24.462Z,98624.47
2023-03-27T07:46:57.194Z,98611.22
2023-03-27T07:49:39.599Z,98613.81
2023-03-27T07:52:10.917Z,98611.47
2023-03-27T07:54:43.808Z,98610.47
2023-03-27T07:57:17.263Z,98614.50
2023-03-27T07:59:51.362Z,98605.75
2023-03-27T08:02:28.732Z,98612.59
2023-03-27T08:04:58.332Z,98609.00
2023-03-27T08:07:31.671Z,98610.91
2023-03-27T08:10:06.327Z,98614.00
2023-03-27T08:12:43.231Z,98614.22
2023-03-27T08:15:15.707Z,98620.41
2023-03-27T08:17:47.575Z,98617.59
2023-03-27T08:20:19.952Z,98614.13
2023-03-27T08:22:53.490Z,98616.97
2023-03-27T08:25:34.159Z,98618.94
2023-03-27T08:28:06.765Z,98621.03
2023-03-27T08:30:39.029Z,98615.34
2023-03-27T08:33:11.073Z,98613.66
2023-03-27T08:35:42.397Z,98615.00
2023-03-27T08:38:26.262Z,98608.91
2023-03-27T08:41:04.368Z,98596.56
2023-03-27T08:43:41.319Z,98622.37
2023-03-27T08:46:21.095Z,98614.84
2023-03-27T08:49:04.393Z,98616.50
2023-03-27T08:51:42.550Z,98610.59
2023-03-27T08:54:19.474Z,98593.75
2023-03-27T08:56:52.851Z,98613.81
2023-03-27T08:59:31.076Z,98612.75
2023-03-27T09:02:21.918Z,98611.53
2023-03-27T09:04:53.322Z,98606.56
2023-03-27T09:07:51.741Z,98615.91
2023-03-27T09:10:36.882Z,98598.78
2023-03-27T09:13:30.008Z,98601.41
2023-03-27T09:16:27.020Z,98602.06
2023-03-27T09:19:16.638Z,98599.47
2023-03-27T09:21:58.871Z,98604.84
2023-03-27T09:24:43.015Z,98608.13
2023-03-27T09:27:24.188Z,98607.16
2023-03-27T09:30:21.565Z,98614.00
2023-03-27T09:33:00.276Z,98614.22
2023-03-27T09:35:32.485Z,98624.22
2023-03-27T09:38:15.132Z,98621.34
2023-03-27T09:41:15.770Z,98631.50
2023-03-27T09:43:55.190Z,98623.91
2023-03-27T09:46:28.954Z,98627.53
2023-03-27T09:49:05.322Z,98642.53
2023-03-27T09:51:48.258Z,98640.75
2023-03-27T09:54:25.185Z,98639.94
2023-03-27T09:57:06.823Z,98645.53
2023-03-27T09:59:43.365Z,98655.50
2023-03-27T10:02:33.334Z,98653.09
2023-03-27T10:05:13.081Z,98646.28
2023-03-27T10:07:46.629Z,98661.75
2023-03-27T10:10:22.792Z,98666.25
2023-03-27T10:12:59.844Z,98669.00
2023-03-27T10:15:40.388Z,98658.28
2023-03-27T10:18:31.093Z,98650.38
2023-03-27T10:21:12.969Z,98672.94
2023-03-27T10:23:52.130Z,98673.63
2023-03-27T10:26:28.639Z,98645.91
2023-03-27T10:29:07.864Z,98672.94
2023-03-27T10:31:51.700Z,98680.41
2023-03-27T10:34:34.225Z,98677.38
2023-03-27T10:37:21.342Z,98670.19
2023-03-27T10:39:56.949Z,98667.75
2023-03-27T10:42:33.612Z,98678.50
2023-03-27T10:45:04.896Z,98670.25
2023-03-27T10:47:38.040Z,98672.16
2023-03-27T10:50:20.262Z,98676.97
2023-03-27T10:53:11.622Z,98685.91
2023-03-27T10:56:13.107Z,98686.47
2023-03-27T10:58:53.390Z,98692.50
2023-03-27T11:01:43.756Z,98689.75
2023-03-27T11:04:25.814Z,98692.69
2023-03-27T11:07:01.368Z,98686.00
2023-03-27T11:09:40.905Z,98688.63
2023-03-27T11:12:15.605Z,98700.78
2023-03-27T11:14:56.570Z,98696.25
2023-03-27T11:17:38.652Z,98694.41
2023-03-27T11:20:28.734Z,98694.84
2023-03-27T11:23:12.990Z,98682.31
2023-03-27T11:25:51.806Z,98679.97
2023-03-27T11:28:47.060Z,98682.41
2023-03-27T11:31:35.084Z,98695.44
2023-03-27T11:34:29.516Z,98690.47
2023-03-27T11:37:24.098Z,98696.41
2023-03-27T11:40:03.241Z,98697.78
2023-03-27T11:42:41.555Z,98698.09
2023-03-27T11:45:18.105Z,98713.91
2023-03-27T11:48:04.376Z,98704.28
2023-03-27T11:50:51.218Z,98706.81
2023-03-27T11:53:43.440Z,98698.03
2023-03-27T11:56:46.244Z,98707.69
2023-03-27T11:59:35.038Z,98709.66
2023-03-27T12:02:46.727Z,98721.13
2023-03-27T12:05:39.831Z,98695.88
2023-03-27T12:08:37.373Z,98724.81
2023-03-27T12:11:12.437Z,98715.06
2023-03-27T12:14:18.420Z,98720.97
2023-03-27T12:16:52.549Z,98697.66
2023-03-27T12:19:39.076Z,98721.81
2023-03-27T12:22:24.026Z,98720.44
2023-03-27T12:25:25.227Z,98721.50
2023-03-27T12:28:35.089Z,98718.34
2023-03-27T12:31:34.361Z,98726.22
2023-03-27T12:34:22.570Z,98726.44
2023-03-27T12:36:54.399Z,98719.28
2023-03-27T12:39:30.339Z,98708.19
2023-03-27T12:42:15.244Z,98717.78
2023-03-27T12:45:15.466Z,98722.03
2023-03-27T12:48:08.397Z,98709.03
2023-03-27T12:50:45.956Z,98717.09
2023-03-27T12:53:36.922Z,98715.28
2023-03-27T12:56:34.280Z,98714.00
2023-03-27T12:59:19.600Z,98709.69
2023-03-27T13:02:15.676Z,98717.50
2023-03-27T13:05:26.244Z,98712.69
2023-03-27T13:07:59.958Z,98685.47
2023-03-27T13:10:40.627Z,98720.31
2023-03-27T13:13:40.723Z,98715.78
2023-03-27T13:16:26.553Z,98716.41
2023-03-27T13:19:18.685Z,98722.28
2023-03-27T13:22:04.792Z,98710.28
2023-03-27T13:24:55.849Z,98717.34
2023-03-27T13:28:02.451Z,98724.28
2023-03-27T13:30:49.013Z,98716.00
2023-03-27T13:33:30.931Z,98721.44
2023-03-27T13:36:13.259Z,98725.47
2023-03-27T13:39:05.058Z,98728.53
2023-03-27T13:42:00.976Z,98728.53
2023-03-27T13:44:48.275Z,98732.22
2023-03-27T13:47:48.406Z,98736.37
2023-03-27T13:50:54.203Z,98742.56
2023-03-27T13:53:44.782Z,98746.41
2023-03-27T13:56:23.727Z,98746.66
2023-03-27T13:59:28.695Z,98755.72
2023-03-27T14:02:27.792Z,98752.44
2023-03-27T14:05:37.619Z,98749.00
2023-03-27T14:08:29.753Z,98765.34
2023-03-27T14:11:37.949Z,98759.66
2023-03-27T14:14:26.017Z,98770.91
2023-03-27T14:17:29.362Z,98769.00
2023-03-27T14:20:39.799Z,98765.56
2023-03-27T14:23:17.669Z,98771.16
2023-03-27T14:26:02.158Z,98783.75
2023-03-27T14:28:48.553Z,98776.66
2023-03-27T14:31:22.555Z,98777.62
2023-03-27T14:34:18.948Z,98777.34
2023-03-27T14:36:52.629Z,98787.13
2023-03-27T14:39:28.171Z,98782.37
2023-03-27T14:42:03.179Z,98782.47
2023-03-27T14:44:35.743Z,98787.66
2023-03-27T14:47:13.691Z,98794.84
2023-03-27T14:49:50.191Z,98800.78
2023-03-27T14:52:28.001Z,98802.75
2023-03-27T14:55:03.189Z,98802.13
2023-03-27T14:57:38.262Z,98816.94
2023-03-27T15:00:19.488Z,98815.31
2023-03-27T15:02:53.067Z,98815.19
2023-03-27T15:05:25.638Z,98824.81
2023-03-27T15:07:57.914Z,98828.72
2023-03-27T15:10:35.343Z,98839.72
2023-03-27T15:13:12.059Z,98843.88
2023-03-27T15:15:47.761Z,98840.28
2023-03-27T15:18:32.329Z,98846.34
2023-03-27T15:21:12.410Z,98853.28
2023-03-27T15:23:48.254Z,98851.66
2023-03-27T15:26:27.389Z,98859.09
2023-03-27T15:29:14.525Z,98862.53
2023-03-27T15:31:50.163Z,98864.84
2023-03-27T15:37:58.049Z,98873.84
2023-03-27T15:40:39.652Z,98877.19
2023-03-27T15:43:15.385Z,98892.38
2023-03-27T15:46:14.716Z,98897.84
2023-03-27T15:48:52.059Z,98906.16
2023-03-27T15:51:30.462Z,98903.78
2023-03-27T15:54:20.953Z,98903.47
2023-03-27T15:57:10.791Z,98908.12
2023-03-27T15:59:52.933Z,98905.13
2023-03-27T16:02:27.447Z,98921.25
2023-03-27T16:04:59.928Z,98924.94
2023-03-27T16:07:50.828Z,98927.19
2023-03-27T16:10:34.101Z,98935.00
2023-03-27T16:13:07.242Z,98945.06
2023-03-27T16:15:42.544Z,98945.06
2023-03-27T16:18:29.012Z,98948.97
2023-03-27T16:21:13.948Z,98947.53
2023-03-27T16:23:46.222Z,98958.69
2023-03-27T16:26:28.028Z,98953.62
2023-03-27T16:29:04.268Z,98959.66
2023-03-27T16:31:35.706Z,98960.97
2023-03-27T16:34:23.043Z,98961.56
2023-03-27T16:36:55.359Z,98970.72
2023-03-27T16:39:26.817Z,98965.37
2023-03-27T16:41:58.542Z,98974.94
2023-03-27T16:44:28.979Z,98973.56
2023-03-27T16:47:01.675Z,98976.28
2023-03-27T16:49:32.856Z,98984.56
2023-03-27T16:52:05.370Z,98994.03
2023-03-27T16:54:37.225Z,98998.94
2023-03-27T16:57:10.431Z,99003.63
2023-03-27T16:59:41.589Z,99005.81
2023-03-27T17:02:13.816Z,99008.50
2023-03-27T17:04:46.859Z,99007.41
2023-03-27T17:07:17.678Z,99017.22
2023-03-27T17:09:48.746Z,99019.34
2023-03-27T17:12:19.433Z,99018.94
2023-03-27T17:14:49.738Z,99019.38
2023-03-27T17:17:22.879Z,99025.28
2023-03-27T17:19:53.331Z,99022.41
2023-03-27T17:22:24.106Z,99032.00
2023-03-27T17:24:57.478Z,99027.53
2023-03-27T17:27:30.537Z,99030.03
2023-03-27T17:30:02.019Z,99030.56
2023-03-27T17:32:33.359Z,99040.16
2023-03-27T17:35:05.305Z,99034.72
2023-03-27T17:37:38.606Z,99044.81
2023-03-27T17:40:11.523Z,99033.66
2023-03-27T17:42:43.455Z,99049.41
2023-03-27T17:45:18.602Z,99054.72
2023-03-27T17:47:49.605Z,99049.41
2023-03-27T17:50:20.813Z,99050.44
2023-03-27T17:52:53.650Z,99053.97
2023-03-27T17:55:24.751Z,99052.94
2023-03-27T17:58:08.976Z,99063.78
2023-03-27T18:00:43.548Z,99068.97
2023-03-27T18:03:18.895Z,99073.22
2023-03-27T18:05:52.125Z,99073.97
2023-03-27T18:08:23.403Z,99076.56
2023-03-27T18:10:54.788Z,99078.56
2023-03-27T18:13:26.238Z,99088.03
2023-03-27T18:15:59.132Z,99087.22
2023-03-27T18:18:29.656Z,99090.72
2023-03-27T18:21:03.740Z,99094.78
2023-03-27T18:23:36.114Z,99091.16
2023-03-27T18:26:17.368Z,99091.88
2023-03-27T18:28:48.955Z,99095.94
2023-03-27T18:31:20.877Z,99097.41
2023-03-27T18:33:52.862Z,99101.47
2023-03-27T18:36:24.944Z,99105.94
2023-03-27T18:38:58.309Z,99112.59
2023-03-27T18:41:29.329Z,99118.22
2023-03-27T18:44:01.050Z,99117.59
2023-03-27T18:46:33.040Z,99124.97
2023-03-27T18:49:13.582Z,99128.50
2023-03-27T18:51:49.567Z,99133.19
2023-03-27T18:54:21.667Z,99133.19
2023-03-27T18:56:52.764Z,99138.41
2023-03-27T18:59:24.301Z,99140.91
2023-03-27T19:01:56.489Z,99153.59
2023-03-27T19:04:29.120Z,99143.59
2023-03-27T19:07:00.612Z,99155.25
2023-03-27T19:09:40.923Z,99154.84
2023-03-27T19:12:13.953Z,99154.03
2023-03-27T19:14:54.602Z,99155.97
2023-03-27T19:17:27.418Z,99154.25
2023-03-27T19:20:18.447Z,99153.19
2023-03-27T19:22:52.413Z,99162.03
2023-03-27T19:25:25.461Z,99149.84
2023-03-27T19:27:57.044Z,99174.66
2023-03-27T19:30:29.110Z,99175.72
2023-03-27T19:32:59.948Z,99178.59
2023-03-27T19:35:31.941Z,99179.66
2023-03-27T19:38:04.538Z,99184.44
2023-03-27T19:40:36.765Z,99194.09
2023-03-27T19:43:08.407Z,99205.09
2023-03-27T19:45:41.975Z,99213.50
2023-03-27T19:48:13.548Z,99210.91
2023-03-27T19:50:46.102Z,99212.91
2023-03-27T19:53:19.232Z,99219.16
2023-03-27T19:55:52.488Z,99231.41
2023-03-27T19:58:23.711Z,99222.09
2023-03-27T20:00:57.056Z,99236.63
2023-03-27T20:03:30.434Z,99243.03
2023-03-27T20:06:06.818Z,99234.75
2023-03-27T20:08:40.792Z,99241.44
2023-03-27T20:11:13.421Z,99254.09
2023-03-27T20:13:55.471Z,99253.28
2023-03-27T20:16:29.849Z,99260.72
2023-03-27T20:19:04.812Z,99261.37
2023-03-27T20:21:41.392Z,99263.97
2023-03-27T20:24:18.517Z,99267.19
2023-03-27T20:26:53.840Z,99266.28
2023-03-27T20:29:27.187Z,99264.84
2023-03-27T20:31:58.000Z,99266.63
2023-03-27T20:34:29.158Z,99270.91
2023-03-27T20:37:02.213Z,99271.31
2023-03-27T20:39:35.280Z,99272.84
2023-03-27T20:42:08.610Z,99274.22
2023-03-27T20:44:39.982Z,99275.63
2023-03-27T20:47:13.571Z,99276.22
2023-03-27T20:49:46.420Z,99274.53
2023-03-27T20:52:20.960Z,99281.06
2023-03-27T20:54:52.804Z,99275.19
2023-03-27T20:57:25.396Z,99270.63
2023-03-27T20:59:57.459Z,99277.50
2023-03-27T21:02:28.619Z,99276.75
2023-03-27T21:05:00.714Z,99273.06
2023-03-27T21:07:35.488Z,99274.56
2023-03-27T21:10:09.453Z,99278.25
2023-03-27T21:12:44.182Z,99277.44
2023-03-27T21:15:17.334Z,99277.87
2023-03-27T21:17:49.082Z,99278.47
2023-03-27T21:20:20.393Z,99276.78
2023-03-27T21:22:54.157Z,99274.53
2023-03-27T21:25:25.446Z,99275.84
2023-03-27T21:27:57.792Z,99265.06
2023-03-27T21:30:46.584Z,99274.38
2023-03-27T21:33:19.974Z,99268.06
2023-03-27T21:35:52.141Z,99268.19
2023-03-27T21:38:23.662Z,99269.81
2023-03-27T21:40:56.583Z,99269.59
2023-03-27T21:43:28.749Z,99272.31
2023-03-27T21:46:02.911Z,99270.81
2023-03-27T21:48:35.011Z,99271.19
2023-03-27T21:51:09.511Z,99274.34
2023-03-27T21:53:41.226Z,99284.31
2023-03-27T21:56:12.410Z,99284.69
2023-03-27T21:58:43.294Z,99285.78
2023-03-27T22:01:16.278Z,99277.84
2023-03-27T22:03:48.967Z,99283.63
2023-03-27T22:06:21.098Z,99290.06
2023-03-27T22:08:53.683Z,99291.53
2023-03-27T22:11:25.574Z,99293.84
2023-03-27T22:13:58.262Z,99287.69
2023-03-27T22:16:29.182Z,99304.53
2023-03-27T22:19:00.846Z,99312.63
2023-03-27T22:21:32.731Z,99318.34
2023-03-27T22:24:05.347Z,99321.31
2023-03-27T22:26:39.634Z,99320.38
2023-03-27T22:29:12.401Z,99325.63
2023-03-27T22:31:43.543Z,99331.00
2023-03-27T22:34:15.443Z,99339.63
2023-03-27T22:36:46.925Z,99330.87
2023-03-27T22:39:19.424Z,99350.75
2023-03-27T22:41:51.694Z,99357.12
2023-03-27T22:44:25.031Z,99333.84
2023-03-27T22:46:57.409Z,99361.22
2023-03-27T22:49:29.526Z,99360.53
2023-03-27T22:52:01.599Z,99368.41
2023-03-27T22:54:34.120Z,99363.69
2023-03-27T22:57:06.309Z,99373.16
2023-03-27T22:59:38.405Z,99366.06
2023-03-27T23:02:10.500Z,99368.72
2023-03-27T23:04:42.734Z,99367.59
2023-03-27T23:07:14.658Z,99342.50
2023-03-27T23:09:46.016Z,99366.41
2023-03-27T23:12:18.048Z,99374.91
2023-03-27T23:14:49.264Z,99375.09
2023-03-27T23:17:21.589Z,99376.94
2023-03-27T23:19:53.474Z,99376.13
2023-03-27T23:22:24.919Z,99382.03
2023-03-27T23:24:57.327Z,99385.09
2023-03-27T23:27:28.566Z,99380.81
2023-03-27T23:30:01.263Z,99393.84
2023-03-27T23:32:37.835Z,99398.34
2023-03-27T23:35:12.620Z,99400.78
2023-03-27T23:37:44.004Z,99395.78
2023-03-27T23:40:15.966Z,99402.59
2023-03-27T23:42:47.603Z,99404.91
2023-03-27T23:45:19.420Z,99406.19
2023-03-27T23:47:50.557Z,99410.53
2023-03-27T23:50:23.094Z,99415.38
2023-03-27T23:52:54.681Z,99422.50
2023-03-27T23:55:27.068Z,99422.91
2023-03-27T23:57:58.101Z,99424.31
